sensor_id;sensor_type;location;lat;lon;timestamp;temperature;humidity
5850;DHT22;2951;47.712;9.400;2022-12-18T00:00:43;-3.00;99.90
5850;DHT22;2951;47.712;9.400;2022-12-18T00:03:09;-2.90;99.90
5850;DHT22;2951;47.712;9.400;2022-12-18T00:05:36;-2.90;99.90
5850;DHT22;2951;47.712;9.400;2022-12-18T00:08:03;-2.90;99.90
5850;DHT22;2951;47.712;9.400;2022-12-18T00:10:29;-2.80;99.90
5850;DHT22;2951;47.712;9.400;2022-12-18T00:12:56;-2.80;99.90
5850;DHT22;2951;47.712;9.400;2022-12-18T00:15:23;-2.90;99.90
5850;DHT22;2951;47.712;9.400;2022-12-18T00:17:49;-2.90;99.90
5850;DHT22;2951;47.712;9.400;2022-12-18T00:20:16;-2.90;99.90
5850;DHT22;2951;47.712;9.400;2022-12-18T00:22:48;-2.70;99.90
5850;DHT22;2951;47.712;9.400;2022-12-18T00:25:14;-2.80;99.90
5850;DHT22;2951;47.712;9.400;2022-12-18T00:27:41;-2.70;99.90
5850;DHT22;2951;47.712;9.400;2022-12-18T00:30:08;-2.60;99.90
5850;DHT22;2951;47.712;9.400;2022-12-18T00:32:34;-2.60;99.90
5850;DHT22;2951;47.712;9.400;2022-12-18T00:35:01;-2.50;99.90
5850;DHT22;2951;47.712;9.400;2022-12-18T00:37:28;-2.60;99.90
5850;DHT22;2951;47.712;9.400;2022-12-18T00:39:55;-2.60;99.90
5850;DHT22;2951;47.712;9.400;2022-12-18T00:42:21;-2.60;99.90
5850;DHT22;2951;47.712;9.400;2022-12-18T00:45:06;-2.70;99.90
5850;DHT22;2951;47.712;9.400;2022-12-18T00:47:38;-2.70;99.90
5850;DHT22;2951;47.712;9.400;2022-12-18T00:50:04;-2.70;99.90
5850;DHT22;2951;47.712;9.400;2022-12-18T00:52:31;-2.80;99.90
5850;DHT22;2951;47.712;9.400;2022-12-18T00:54:58;-2.80;99.90
5850;DHT22;2951;47.712;9.400;2022-12-18T00:57:29;-2.80;99.90
5850;DHT22;2951;47.712;9.400;2022-12-18T00:59:56;-2.80;99.90
5850;DHT22;2951;47.712;9.400;2022-12-18T01:02:23;-2.80;99.90
5850;DHT22;2951;47.712;9.400;2022-12-18T01:04:50;-2.80;99.90
5850;DHT22;2951;47.712;9.400;2022-12-18T01:07:17;-2.80;99.90
5850;DHT22;2951;47.712;9.400;2022-12-18T01:09:43;-2.70;99.90
5850;DHT22;2951;47.712;9.400;2022-12-18T01:12:10;-2.70;99.90
5850;DHT22;2951;47.712;9.400;2022-12-18T01:14:37;-2.70;99.90
5850;DHT22;2951;47.712;9.400;2022-12-18T01:17:04;-2.70;99.90
5850;DHT22;2951;47.712;9.400;2022-12-18T01:19:30;-2.80;99.90
5850;DHT22;2951;47.712;9.400;2022-12-18T01:21:57;-2.70;99.90
5850;DHT22;2951;47.712;9.400;2022-12-18T01:24:24;-2.70;99.90
5850;DHT22;2951;47.712;9.400;2022-12-18T01:26:51;-2.80;99.90
5850;DHT22;2951;47.712;9.400;2022-12-18T01:29:17;-2.70;99.90
5850;DHT22;2951;47.712;9.400;2022-12-18T01:31:44;-2.80;99.90
5850;DHT22;2951;47.712;9.400;2022-12-18T01:34:11;-2.70;99.90
5850;DHT22;2951;47.712;9.400;2022-12-18T01:36:37;-2.70;99.90
5850;DHT22;2951;47.712;9.400;2022-12-18T01:39:12;-2.60;99.90
5850;DHT22;2951;47.712;9.400;2022-12-18T01:41:39;-2.60;99.90
5850;DHT22;2951;47.712;9.400;2022-12-18T01:47:09;-2.50;99.90
5850;DHT22;2951;47.712;9.400;2022-12-18T01:49:40;-2.50;99.90
5850;DHT22;2951;47.712;9.400;2022-12-18T01:52:08;-2.50;99.90
5850;DHT22;2951;47.712;9.400;2022-12-18T01:54:34;-2.50;99.90
5850;DHT22;2951;47.712;9.400;2022-12-18T01:57:01;-2.60;99.90
5850;DHT22;2951;47.712;9.400;2022-12-18T01:59:28;-2.60;99.90
5850;DHT22;2951;47.712;9.400;2022-12-18T02:01:55;-2.50;99.90
5850;DHT22;2951;47.712;9.400;2022-12-18T02:04:24;-2.50;99.90
5850;DHT22;2951;47.712;9.400;2022-12-18T02:06:54;-2.50;99.90
5850;DHT22;2951;47.712;9.400;2022-12-18T02:09:24;-2.50;99.90
5850;DHT22;2951;47.712;9.400;2022-12-18T02:12:06;-2.60;99.90
5850;DHT22;2951;47.712;9.400;2022-12-18T02:14:38;-2.60;99.90
5850;DHT22;2951;47.712;9.400;2022-12-18T02:17:08;-2.60;99.90
5850;DHT22;2951;47.712;9.400;2022-12-18T02:27:19;-2.60;99.90
5850;DHT22;2951;47.712;9.400;2022-12-18T02:29:53;-2.60;99.90
5850;DHT22;2951;47.712;9.400;2022-12-18T02:32:25;-2.60;99.90
5850;DHT22;2951;47.712;9.400;2022-12-18T02:34:54;-2.60;99.90
5850;DHT22;2951;47.712;9.400;2022-12-18T02:37:22;-2.70;99.90
5850;DHT22;2951;47.712;9.400;2022-12-18T02:39:49;-2.70;99.90
5850;DHT22;2951;47.712;9.400;2022-12-18T02:42:18;-2.70;99.90
5850;DHT22;2951;47.712;9.400;2022-12-18T02:44:45;-2.70;99.90
5850;DHT22;2951;47.712;9.400;2022-12-18T02:47:13;-2.70;99.90
5850;DHT22;2951;47.712;9.400;2022-12-18T02:55:21;-2.80;99.90
5850;DHT22;2951;47.712;9.400;2022-12-18T02:58:03;-2.80;99.90
5850;DHT22;2951;47.712;9.400;2022-12-18T03:00:35;-2.80;99.90
5850;DHT22;2951;47.712;9.400;2022-12-18T03:03:11;-2.80;99.90
5850;DHT22;2951;47.712;9.400;2022-12-18T03:05:47;-2.80;99.90
5850;DHT22;2951;47.712;9.400;2022-12-18T03:08:29;-2.80;99.90
5850;DHT22;2951;47.712;9.400;2022-12-18T03:11:04;-2.70;99.90
5850;DHT22;2951;47.712;9.400;2022-12-18T03:13:32;-2.70;99.90
5850;DHT22;2951;47.712;9.400;2022-12-18T03:15:59;-2.80;99.90
5850;DHT22;2951;47.712;9.400;2022-12-18T03:18:39;-2.80;99.90
5850;DHT22;2951;47.712;9.400;2022-12-18T03:21:09;-2.90;99.90
5850;DHT22;2951;47.712;9.400;2022-12-18T03:23:40;-2.90;99.90
5850;DHT22;2951;47.712;9.400;2022-12-18T03:26:10;-2.80;99.90
5850;DHT22;2951;47.712;9.400;2022-12-18T03:28:42;-2.80;99.90
5850;DHT22;2951;47.712;9.400;2022-12-18T03:31:11;-2.80;99.90
5850;DHT22;2951;47.712;9.400;2022-12-18T03:33:57;-2.80;99.90
5850;DHT22;2951;47.712;9.400;2022-12-18T03:36:25;-2.80;99.90
5850;DHT22;2951;47.712;9.400;2022-12-18T03:38:51;-2.80;99.90
5850;DHT22;2951;47.712;9.400;2022-12-18T03:41:19;-2.90;99.90
5850;DHT22;2951;47.712;9.400;2022-12-18T03:43:51;-2.80;99.90
5850;DHT22;2951;47.712;9.400;2022-12-18T03:46:24;-2.80;99.90
5850;DHT22;2951;47.712;9.400;2022-12-18T03:48:54;-2.80;99.90
5850;DHT22;2951;47.712;9.400;2022-12-18T03:51:24;-2.80;99.90
5850;DHT22;2951;47.712;9.400;2022-12-18T03:53:57;-2.80;99.90
5850;DHT22;2951;47.712;9.400;2022-12-18T03:56:25;-2.80;99.90
5850;DHT22;2951;47.712;9.400;2022-12-18T03:58:56;-2.80;99.90
5850;DHT22;2951;47.712;9.400;2022-12-18T04:01:25;-2.90;99.90
5850;DHT22;2951;47.712;9.400;2022-12-18T04:03:54;-2.90;99.90
5850;DHT22;2951;47.712;9.400;2022-12-18T04:06:22;-3.00;99.90
5850;DHT22;2951;47.712;9.400;2022-12-18T04:08:49;-3.10;99.90
5850;DHT22;2951;47.712;9.400;2022-12-18T04:11:16;-3.00;99.90
5850;DHT22;2951;47.712;9.400;2022-12-18T04:13:43;-3.00;99.90
5850;DHT22;2951;47.712;9.400;2022-12-18T04:16:09;-3.00;99.90
5850;DHT22;2951;47.712;9.400;2022-12-18T04:18:36;-2.90;99.90
5850;DHT22;2951;47.712;9.400;2022-12-18T04:21:03;-3.10;99.90
5850;DHT22;2951;47.712;9.400;2022-12-18T04:23:29;-3.10;99.90
5850;DHT22;2951;47.712;9.400;2022-12-18T04:25:56;-3.10;99.90
5850;DHT22;2951;47.712;9.400;2022-12-18T04:28:23;-3.10;99.90
5850;DHT22;2951;47.712;9.400;2022-12-18T04:30:49;-3.10;99.90
5850;DHT22;2951;47.712;9.400;2022-12-18T04:33:16;-3.10;99.90
5850;DHT22;2951;47.712;9.400;2022-12-18T04:35:43;-3.10;99.90
5850;DHT22;2951;47.712;9.400;2022-12-18T04:38:09;-3.10;99.90
5850;DHT22;2951;47.712;9.400;2022-12-18T04:40:36;-3.20;99.90
5850;DHT22;2951;47.712;9.400;2022-12-18T04:43:03;-3.20;99.90
5850;DHT22;2951;47.712;9.400;2022-12-18T04:45:30;-3.20;99.90
5850;DHT22;2951;47.712;9.400;2022-12-18T04:47:57;-3.30;99.90
5850;DHT22;2951;47.712;9.400;2022-12-18T04:50:24;-3.40;99.90
5850;DHT22;2951;47.712;9.400;2022-12-18T04:52:51;-3.30;99.90
5850;DHT22;2951;47.712;9.400;2022-12-18T04:55:17;-3.30;99.90
5850;DHT22;2951;47.712;9.400;2022-12-18T04:57:44;-3.30;99.90
5850;DHT22;2951;47.712;9.400;2022-12-18T05:00:10;-3.40;99.90
5850;DHT22;2951;47.712;9.400;2022-12-18T05:02:37;-3.40;99.90
5850;DHT22;2951;47.712;9.400;2022-12-18T05:05:04;-3.50;99.90
5850;DHT22;2951;47.712;9.400;2022-12-18T05:07:31;-3.50;99.90
5850;DHT22;2951;47.712;9.400;2022-12-18T05:09:58;-3.50;99.90
5850;DHT22;2951;47.712;9.400;2022-12-18T05:12:24;-3.40;99.90
5850;DHT22;2951;47.712;9.400;2022-12-18T05:14:51;-3.40;99.90
5850;DHT22;2951;47.712;9.400;2022-12-18T05:17:17;-3.40;99.90
5850;DHT22;2951;47.712;9.400;2022-12-18T05:19:44;-3.30;99.90
5850;DHT22;2951;47.712;9.400;2022-12-18T05:22:11;-3.30;99.90
5850;DHT22;2951;47.712;9.400;2022-12-18T05:24:37;-3.20;99.90
5850;DHT22;2951;47.712;9.400;2022-12-18T05:27:04;-3.30;99.90
5850;DHT22;2951;47.712;9.400;2022-12-18T05:29:31;-3.30;99.90
5850;DHT22;2951;47.712;9.400;2022-12-18T05:31:57;-3.30;99.90
5850;DHT22;2951;47.712;9.400;2022-12-18T05:34:24;-3.30;99.90
5850;DHT22;2951;47.712;9.400;2022-12-18T05:36:50;-3.30;99.90
5850;DHT22;2951;47.712;9.400;2022-12-18T05:39:17;-3.30;99.90
5850;DHT22;2951;47.712;9.400;2022-12-18T05:41:44;-3.20;99.90
5850;DHT22;2951;47.712;9.400;2022-12-18T05:44:10;-3.20;99.90
5850;DHT22;2951;47.712;9.400;2022-12-18T05:46:37;-3.30;99.90
5850;DHT22;2951;47.712;9.400;2022-12-18T05:49:03;-3.20;99.90
5850;DHT22;2951;47.712;9.400;2022-12-18T05:51:30;-3.30;99.90
5850;DHT22;2951;47.712;9.400;2022-12-18T05:53:57;-3.30;99.90
5850;DHT22;2951;47.712;9.400;2022-12-18T05:56:24;-3.30;99.90
5850;DHT22;2951;47.712;9.400;2022-12-18T05:58:52;-3.20;99.90
5850;DHT22;2951;47.712;9.400;2022-12-18T06:01:20;-3.20;99.90
5850;DHT22;2951;47.712;9.400;2022-12-18T06:03:47;-3.30;99.90
5850;DHT22;2951;47.712;9.400;2022-12-18T06:08:40;-3.30;99.90
5850;DHT22;2951;47.712;9.400;2022-12-18T06:11:11;-3.30;99.90
5850;DHT22;2951;47.712;9.400;2022-12-18T06:13:38;-3.30;99.90
5850;DHT22;2951;47.712;9.400;2022-12-18T06:16:05;-3.30;99.90
5850;DHT22;2951;47.712;9.400;2022-12-18T06:18:32;-3.20;99.90
5850;DHT22;2951;47.712;9.400;2022-12-18T06:20:59;-3.30;99.90
5850;DHT22;2951;47.712;9.400;2022-12-18T06:23:26;-3.20;99.90
5850;DHT22;2951;47.712;9.400;2022-12-18T06:25:52;-3.10;99.90
5850;DHT22;2951;47.712;9.400;2022-12-18T06:28:19;-3.20;99.90
5850;DHT22;2951;47.712;9.400;2022-12-18T06:30:46;-3.20;99.90
5850;DHT22;2951;47.712;9.400;2022-12-18T06:33:13;-3.30;99.90
5850;DHT22;2951;47.712;9.400;2022-12-18T06:35:40;-3.30;99.90
5850;DHT22;2951;47.712;9.400;2022-12-18T06:38:07;-3.30;99.90
5850;DHT22;2951;47.712;9.400;2022-12-18T06:40:35;-3.30;99.90
5850;DHT22;2951;47.712;9.400;2022-12-18T06:43:02;-3.30;99.90
5850;DHT22;2951;47.712;9.400;2022-12-18T06:45:29;-3.30;99.90
5850;DHT22;2951;47.712;9.400;2022-12-18T06:47:56;-3.30;99.90
5850;DHT22;2951;47.712;9.400;2022-12-18T06:50:22;-3.40;99.90
5850;DHT22;2951;47.712;9.400;2022-12-18T06:52:49;-3.40;99.90
5850;DHT22;2951;47.712;9.400;2022-12-18T06:55:15;-3.40;99.90
5850;DHT22;2951;47.712;9.400;2022-12-18T06:57:42;-3.40;99.90
5850;DHT22;2951;47.712;9.400;2022-12-18T07:00:09;-3.40;99.90
5850;DHT22;2951;47.712;9.400;2022-12-18T07:02:36;-3.30;99.90
5850;DHT22;2951;47.712;9.400;2022-12-18T07:05:02;-3.20;99.90
5850;DHT22;2951;47.712;9.400;2022-12-18T07:07:35;-3.20;99.90
5850;DHT22;2951;47.712;9.400;2022-12-18T07:10:02;-3.30;99.90
5850;DHT22;2951;47.712;9.400;2022-12-18T07:12:29;-3.20;99.90
5850;DHT22;2951;47.712;9.400;2022-12-18T07:14:56;-3.30;99.90
5850;DHT22;2951;47.712;9.400;2022-12-18T07:17:22;-3.30;99.90
5850;DHT22;2951;47.712;9.400;2022-12-18T07:19:49;-3.30;99.90
5850;DHT22;2951;47.712;9.400;2022-12-18T07:22:15;-3.30;99.90
5850;DHT22;2951;47.712;9.400;2022-12-18T07:24:42;-3.20;99.90
5850;DHT22;2951;47.712;9.400;2022-12-18T07:27:09;-3.10;99.90
5850;DHT22;2951;47.712;9.400;2022-12-18T07:29:35;-3.20;99.90
5850;DHT22;2951;47.712;9.400;2022-12-18T07:32:02;-3.30;99.90
5850;DHT22;2951;47.712;9.400;2022-12-18T07:34:29;-3.20;99.90
5850;DHT22;2951;47.712;9.400;2022-12-18T07:36:55;-3.10;99.90
5850;DHT22;2951;47.712;9.400;2022-12-18T07:39:22;-3.00;99.90
5850;DHT22;2951;47.712;9.400;2022-12-18T07:41:49;-3.00;99.90
5850;DHT22;2951;47.712;9.400;2022-12-18T07:44:35;-3.00;99.90
5850;DHT22;2951;47.712;9.400;2022-12-18T07:47:03;-3.10;99.90
5850;DHT22;2951;47.712;9.400;2022-12-18T07:49:34;-3.00;99.90
5850;DHT22;2951;47.712;9.400;2022-12-18T07:52:01;-2.90;99.90
5850;DHT22;2951;47.712;9.400;2022-12-18T07:54:28;-2.90;99.90
5850;DHT22;2951;47.712;9.400;2022-12-18T07:56:54;-3.00;99.90
5850;DHT22;2951;47.712;9.400;2022-12-18T07:59:21;-3.00;99.90
5850;DHT22;2951;47.712;9.400;2022-12-18T08:01:47;-3.00;99.90
5850;DHT22;2951;47.712;9.400;2022-12-18T08:04:14;-3.00;99.90
5850;DHT22;2951;47.712;9.400;2022-12-18T08:06:41;-2.90;99.90
5850;DHT22;2951;47.712;9.400;2022-12-18T08:09:12;-2.90;99.90
5850;DHT22;2951;47.712;9.400;2022-12-18T08:11:39;-2.90;99.90
5850;DHT22;2951;47.712;9.400;2022-12-18T08:14:06;-2.80;99.90
5850;DHT22;2951;47.712;9.400;2022-12-18T08:16:32;-2.70;99.90
5850;DHT22;2951;47.712;9.400;2022-12-18T08:18:59;-2.60;99.90
5850;DHT22;2951;47.712;9.400;2022-12-18T08:21:27;-2.60;99.90
5850;DHT22;2951;47.712;9.400;2022-12-18T08:23:54;-2.50;99.90
5850;DHT22;2951;47.712;9.400;2022-12-18T08:26:22;-2.50;99.90
5850;DHT22;2951;47.712;9.400;2022-12-18T08:28:49;-2.40;99.90
5850;DHT22;2951;47.712;9.400;2022-12-18T08:31:16;-2.40;99.90
5850;DHT22;2951;47.712;9.400;2022-12-18T08:33:43;-2.40;99.90
5850;DHT22;2951;47.712;9.400;2022-12-18T08:36:10;-2.30;99.90
5850;DHT22;2951;47.712;9.400;2022-12-18T08:38:36;-2.30;99.90
5850;DHT22;2951;47.712;9.400;2022-12-18T08:41:04;-2.30;99.90
5850;DHT22;2951;47.712;9.400;2022-12-18T08:43:31;-2.30;99.90
5850;DHT22;2951;47.712;9.400;2022-12-18T08:46:20;-2.30;99.90
5850;DHT22;2951;47.712;9.400;2022-12-18T08:48:47;-2.10;99.90
5850;DHT22;2951;47.712;9.400;2022-12-18T08:51:15;-2.20;99.90
5850;DHT22;2951;47.712;9.400;2022-12-18T08:53:42;-2.30;99.90
5850;DHT22;2951;47.712;9.400;2022-12-18T08:56:09;-2.30;99.90
5850;DHT22;2951;47.712;9.400;2022-12-18T08:58:36;-2.20;99.90
5850;DHT22;2951;47.712;9.400;2022-12-18T09:01:03;-2.20;99.90
5850;DHT22;2951;47.712;9.400;2022-12-18T09:03:30;-2.00;99.90
5850;DHT22;2951;47.712;9.400;2022-12-18T09:05:57;-1.90;99.90
5850;DHT22;2951;47.712;9.400;2022-12-18T09:08:24;-1.90;99.90
5850;DHT22;2951;47.712;9.400;2022-12-18T09:10:50;-1.80;99.90
5850;DHT22;2951;47.712;9.400;2022-12-18T09:13:18;-1.80;99.90
5850;DHT22;2951;47.712;9.400;2022-12-18T09:15:45;-1.70;99.90
5850;DHT22;2951;47.712;9.400;2022-12-18T09:18:13;-1.60;99.90
5850;DHT22;2951;47.712;9.400;2022-12-18T09:20:41;-1.60;99.90
5850;DHT22;2951;47.712;9.400;2022-12-18T09:23:07;-1.50;99.90
5850;DHT22;2951;47.712;9.400;2022-12-18T09:25:34;-1.60;99.90
5850;DHT22;2951;47.712;9.400;2022-12-18T09:28:02;-1.50;99.90
5850;DHT22;2951;47.712;9.400;2022-12-18T09:30:29;-1.60;99.90
5850;DHT22;2951;47.712;9.400;2022-12-18T09:32:56;-1.50;99.90
5850;DHT22;2951;47.712;9.400;2022-12-18T09:35:23;-1.50;99.90
5850;DHT22;2951;47.712;9.400;2022-12-18T09:37:49;-1.50;99.90
5850;DHT22;2951;47.712;9.400;2022-12-18T09:40:17;-1.40;99.90
5850;DHT22;2951;47.712;9.400;2022-12-18T09:42:45;-1.40;99.90
5850;DHT22;2951;47.712;9.400;2022-12-18T09:45:14;-1.40;99.90
5850;DHT22;2951;47.712;9.400;2022-12-18T09:47:41;-1.30;99.90
5850;DHT22;2951;47.712;9.400;2022-12-18T09:50:26;-1.30;99.90
5850;DHT22;2951;47.712;9.400;2022-12-18T09:52:56;-1.40;99.90
5850;DHT22;2951;47.712;9.400;2022-12-18T09:55:25;-1.60;99.90
5850;DHT22;2951;47.712;9.400;2022-12-18T10:00:51;-1.50;99.90
5850;DHT22;2951;47.712;9.400;2022-12-18T10:03:17;-1.40;99.90
5850;DHT22;2951;47.712;9.400;2022-12-18T10:16:29;-1.10;99.90
5850;DHT22;2951;47.712;9.400;2022-12-18T10:21:39;-1.30;99.90
5850;DHT22;2951;47.712;9.400;2022-12-18T10:24:17;-1.40;99.90
5850;DHT22;2951;47.712;9.400;2022-12-18T10:26:48;-1.40;99.90
5850;DHT22;2951;47.712;9.400;2022-12-18T10:29:16;-1.20;99.90
5850;DHT22;2951;47.712;9.400;2022-12-18T10:31:43;-1.20;99.90
5850;DHT22;2951;47.712;9.400;2022-12-18T10:34:10;-1.30;99.90
5850;DHT22;2951;47.712;9.400;2022-12-18T10:36:37;-1.30;99.90
5850;DHT22;2951;47.712;9.400;2022-12-18T10:39:17;-1.20;99.90
5850;DHT22;2951;47.712;9.400;2022-12-18T10:41:44;-1.30;99.90
5850;DHT22;2951;47.712;9.400;2022-12-18T10:44:14;-1.50;99.90
5850;DHT22;2951;47.712;9.400;2022-12-18T10:46:41;-1.60;99.90
5850;DHT22;2951;47.712;9.400;2022-12-18T10:49:17;-1.60;99.90
5850;DHT22;2951;47.712;9.400;2022-12-18T10:51:45;-1.70;99.90
5850;DHT22;2951;47.712;9.400;2022-12-18T10:54:16;-1.50;99.90
5850;DHT22;2951;47.712;9.400;2022-12-18T10:56:43;-1.40;99.90
5850;DHT22;2951;47.712;9.400;2022-12-18T10:59:10;-1.30;99.90
5850;DHT22;2951;47.712;9.400;2022-12-18T11:01:56;-1.10;99.90
5850;DHT22;2951;47.712;9.400;2022-12-18T11:04:27;-1.40;99.90
5850;DHT22;2951;47.712;9.400;2022-12-18T11:07:04;-1.30;99.90
5850;DHT22;2951;47.712;9.400;2022-12-18T11:11:59;-1.50;99.90
5850;DHT22;2951;47.712;9.400;2022-12-18T11:14:35;-1.50;99.90
5850;DHT22;2951;47.712;9.400;2022-12-18T11:17:22;-1.50;99.90
5850;DHT22;2951;47.712;9.400;2022-12-18T11:19:53;-1.20;99.90
5850;DHT22;2951;47.712;9.400;2022-12-18T11:22:33;-0.90;99.90
5850;DHT22;2951;47.712;9.400;2022-12-18T11:25:05;-1.10;99.90
5850;DHT22;2951;47.712;9.400;2022-12-18T11:27:54;-1.10;99.90
5850;DHT22;2951;47.712;9.400;2022-12-18T11:32:55;-0.90;99.90
5850;DHT22;2951;47.712;9.400;2022-12-18T11:35:30;-0.70;99.90
5850;DHT22;2951;47.712;9.400;2022-12-18T11:38:01;-0.60;99.90
5850;DHT22;2951;47.712;9.400;2022-12-18T11:40:40;-0.60;99.90
5850;DHT22;2951;47.712;9.400;2022-12-18T11:45:41;-0.60;99.90
5850;DHT22;2951;47.712;9.400;2022-12-18T11:48:14;-0.60;99.90
5850;DHT22;2951;47.712;9.400;2022-12-18T11:50:50;-0.70;99.90
5850;DHT22;2951;47.712;9.400;2022-12-18T11:53:17;-0.60;99.90
5850;DHT22;2951;47.712;9.400;2022-12-18T12:13:53;-0.60;99.90
5850;DHT22;2951;47.712;9.400;2022-12-18T12:19:11;-0.60;99.90
5850;DHT22;2951;47.712;9.400;2022-12-18T12:21:45;-0.60;99.90
5850;DHT22;2951;47.712;9.400;2022-12-18T12:34:25;-0.80;99.90
5850;DHT22;2951;47.712;9.400;2022-12-18T12:39:25;-0.90;99.90
5850;DHT22;2951;47.712;9.400;2022-12-18T12:41:53;-0.80;99.90
5850;DHT22;2951;47.712;9.400;2022-12-18T12:44:42;-0.70;99.90
5850;DHT22;2951;47.712;9.400;2022-12-18T12:47:12;-0.60;99.90
5850;DHT22;2951;47.712;9.400;2022-12-18T12:49:40;-0.50;99.90
5850;DHT22;2951;47.712;9.400;2022-12-18T12:52:15;-0.60;99.90
5850;DHT22;2951;47.712;9.400;2022-12-18T12:54:42;-0.70;99.90
5850;DHT22;2951;47.712;9.400;2022-12-18T12:57:23;-0.80;99.90
5850;DHT22;2951;47.712;9.400;2022-12-18T13:00:00;-0.80;99.90
5850;DHT22;2951;47.712;9.400;2022-12-18T13:07:59;-0.90;99.90
5850;DHT22;2951;47.712;9.400;2022-12-18T13:10:43;-0.70;99.90
5850;DHT22;2951;47.712;9.400;2022-12-18T13:13:10;-0.80;99.90
5850;DHT22;2951;47.712;9.400;2022-12-18T13:21:24;-0.90;99.90
5850;DHT22;2951;47.712;9.400;2022-12-18T13:23:43;-0.80;99.90
5850;DHT22;2951;47.712;9.400;2022-12-18T13:36:52;-1.00;99.90
5850;DHT22;2951;47.712;9.400;2022-12-18T13:44:33;-1.00;99.90
5850;DHT22;2951;47.712;9.400;2022-12-18T13:47:11;-1.00;99.90
5850;DHT22;2951;47.712;9.400;2022-12-18T13:49:50;-1.00;99.90
5850;DHT22;2951;47.712;9.400;2022-12-18T13:52:18;-1.00;99.90
5850;DHT22;2951;47.712;9.400;2022-12-18T13:54:47;-0.90;99.90
5850;DHT22;2951;47.712;9.400;2022-12-18T13:59:51;-0.90;99.90
5850;DHT22;2951;47.712;9.400;2022-12-18T14:02:21;-0.80;99.90
5850;DHT22;2951;47.712;9.400;2022-12-18T14:04:48;-0.80;99.90
5850;DHT22;2951;47.712;9.400;2022-12-18T14:07:33;-0.90;99.90
5850;DHT22;2951;47.712;9.400;2022-12-18T14:10:03;-0.90;99.90
5850;DHT22;2951;47.712;9.400;2022-12-18T14:12:50;-0.80;99.90
5850;DHT22;2951;47.712;9.400;2022-12-18T14:17:54;-0.80;99.90
5850;DHT22;2951;47.712;9.400;2022-12-18T14:20:21;-0.80;99.90
5850;DHT22;2951;47.712;9.400;2022-12-18T14:22:49;-1.00;99.90
5850;DHT22;2951;47.712;9.400;2022-12-18T14:25:20;-1.10;99.90
5850;DHT22;2951;47.712;9.400;2022-12-18T14:33:00;-1.20;99.90
5850;DHT22;2951;47.712;9.400;2022-12-18T14:35:27;-1.20;99.90
5850;DHT22;2951;47.712;9.400;2022-12-18T14:38:08;-1.20;99.90
5850;DHT22;2951;47.712;9.400;2022-12-18T14:40:35;-1.20;99.90
5850;DHT22;2951;47.712;9.400;2022-12-18T14:43:01;-1.30;99.90
5850;DHT22;2951;47.712;9.400;2022-12-18T14:45:35;-1.20;99.90
5850;DHT22;2951;47.712;9.400;2022-12-18T14:48:08;-1.20;99.90
5850;DHT22;2951;47.712;9.400;2022-12-18T14:50:35;-1.30;99.90
5850;DHT22;2951;47.712;9.400;2022-12-18T14:53:02;-1.40;99.90
5850;DHT22;2951;47.712;9.400;2022-12-18T14:55:28;-1.50;99.90
5850;DHT22;2951;47.712;9.400;2022-12-18T14:57:55;-1.50;99.90
5850;DHT22;2951;47.712;9.400;2022-12-18T15:00:23;-1.60;99.90
5850;DHT22;2951;47.712;9.400;2022-12-18T15:02:52;-1.50;99.90
5850;DHT22;2951;47.712;9.400;2022-12-18T15:05:20;-1.50;99.90
5850;DHT22;2951;47.712;9.400;2022-12-18T15:07:51;-1.40;99.90
5850;DHT22;2951;47.712;9.400;2022-12-18T15:10:19;-1.50;99.90
5850;DHT22;2951;47.712;9.400;2022-12-18T15:13:07;-1.50;99.90
5850;DHT22;2951;47.712;9.400;2022-12-18T15:18:14;-1.60;99.90
5850;DHT22;2951;47.712;9.400;2022-12-18T15:23:23;-1.70;99.90
5850;DHT22;2951;47.712;9.400;2022-12-18T15:26:00;-1.80;99.90
5850;DHT22;2951;47.712;9.400;2022-12-18T15:28:32;-1.80;99.90
5850;DHT22;2951;47.712;9.400;2022-12-18T15:33:27;-1.70;99.90
5850;DHT22;2951;47.712;9.400;2022-12-18T15:36:00;-1.60;99.90
5850;DHT22;2951;47.712;9.400;2022-12-18T15:38:26;-1.70;99.90
5850;DHT22;2951;47.712;9.400;2022-12-18T15:40:53;-1.60;99.90
5850;DHT22;2951;47.712;9.400;2022-12-18T15:43:21;-1.60;99.90
5850;DHT22;2951;47.712;9.400;2022-12-18T15:46:04;-1.70;99.90
5850;DHT22;2951;47.712;9.400;2022-12-18T15:48:34;-1.70;99.90
5850;DHT22;2951;47.712;9.400;2022-12-18T15:51:02;-1.70;99.90
5850;DHT22;2951;47.712;9.400;2022-12-18T15:53:29;-1.80;99.90
5850;DHT22;2951;47.712;9.400;2022-12-18T15:55:56;-1.80;99.90
5850;DHT22;2951;47.712;9.400;2022-12-18T15:58:42;-1.90;99.90
5850;DHT22;2951;47.712;9.400;2022-12-18T16:01:09;-1.90;99.90
5850;DHT22;2951;47.712;9.400;2022-12-18T16:03:36;-1.90;99.90
5850;DHT22;2951;47.712;9.400;2022-12-18T16:06:03;-1.90;99.90
5850;DHT22;2951;47.712;9.400;2022-12-18T16:08:30;-1.90;99.90
5850;DHT22;2951;47.712;9.400;2022-12-18T16:10:59;-1.90;99.90
5850;DHT22;2951;47.712;9.400;2022-12-18T16:13:26;-2.00;99.90
5850;DHT22;2951;47.712;9.400;2022-12-18T16:15:52;-2.00;99.90
5850;DHT22;2951;47.712;9.400;2022-12-18T16:18:19;-2.10;99.90
5850;DHT22;2951;47.712;9.400;2022-12-18T16:20:45;-2.10;99.90
5850;DHT22;2951;47.712;9.400;2022-12-18T16:23:12;-2.10;99.90
5850;DHT22;2951;47.712;9.400;2022-12-18T16:25:39;-2.10;99.90
5850;DHT22;2951;47.712;9.400;2022-12-18T16:28:05;-2.10;99.90
5850;DHT22;2951;47.712;9.400;2022-12-18T16:30:32;-2.10;99.90
5850;DHT22;2951;47.712;9.400;2022-12-18T16:33:03;-2.10;99.90
5850;DHT22;2951;47.712;9.400;2022-12-18T16:35:30;-2.10;99.90
5850;DHT22;2951;47.712;9.400;2022-12-18T16:37:57;-2.00;99.90
5850;DHT22;2951;47.712;9.400;2022-12-18T16:40:23;-2.00;99.90
5850;DHT22;2951;47.712;9.400;2022-12-18T16:42:51;-2.00;99.90
5850;DHT22;2951;47.712;9.400;2022-12-18T16:45:17;-2.00;99.90
5850;DHT22;2951;47.712;9.400;2022-12-18T16:47:44;-2.00;99.90
5850;DHT22;2951;47.712;9.400;2022-12-18T16:50:11;-2.00;99.90
5850;DHT22;2951;47.712;9.400;2022-12-18T16:52:38;-2.00;99.90
5850;DHT22;2951;47.712;9.400;2022-12-18T16:55:05;-2.00;99.90
5850;DHT22;2951;47.712;9.400;2022-12-18T16:57:32;-2.00;99.90
5850;DHT22;2951;47.712;9.400;2022-12-18T16:59:58;-2.10;99.90
5850;DHT22;2951;47.712;9.400;2022-12-18T17:02:30;-2.00;99.90
5850;DHT22;2951;47.712;9.400;2022-12-18T17:04:57;-2.00;99.90
5850;DHT22;2951;47.712;9.400;2022-12-18T17:07:24;-2.10;99.90
5850;DHT22;2951;47.712;9.400;2022-12-18T17:09:51;-2.00;99.90
5850;DHT22;2951;47.712;9.400;2022-12-18T17:12:20;-1.90;99.90
5850;DHT22;2951;47.712;9.400;2022-12-18T17:14:46;-1.90;99.90
5850;DHT22;2951;47.712;9.400;2022-12-18T17:17:13;-1.80;99.90
5850;DHT22;2951;47.712;9.400;2022-12-18T17:19:49;-1.80;99.90
5850;DHT22;2951;47.712;9.400;2022-12-18T17:22:15;-1.80;99.90
5850;DHT22;2951;47.712;9.400;2022-12-18T17:24:42;-1.80;99.90
5850;DHT22;2951;47.712;9.400;2022-12-18T17:27:08;-1.90;99.90
5850;DHT22;2951;47.712;9.400;2022-12-18T17:29:35;-1.90;99.90
5850;DHT22;2951;47.712;9.400;2022-12-18T17:32:02;-1.80;99.90
5850;DHT22;2951;47.712;9.400;2022-12-18T17:34:28;-1.80;99.90
5850;DHT22;2951;47.712;9.400;2022-12-18T17:36:55;-1.80;99.90
5850;DHT22;2951;47.712;9.400;2022-12-18T17:39:22;-1.80;99.90
5850;DHT22;2951;47.712;9.400;2022-12-18T17:41:48;-1.80;99.90
5850;DHT22;2951;47.712;9.400;2022-12-18T17:44:15;-1.80;99.90
5850;DHT22;2951;47.712;9.400;2022-12-18T17:46:42;-1.80;99.90
5850;DHT22;2951;47.712;9.400;2022-12-18T17:49:10;-1.80;99.90
5850;DHT22;2951;47.712;9.400;2022-12-18T17:51:37;-1.80;99.90
5850;DHT22;2951;47.712;9.400;2022-12-18T17:54:03;-1.80;99.90
5850;DHT22;2951;47.712;9.400;2022-12-18T17:56:30;-1.80;99.90
5850;DHT22;2951;47.712;9.400;2022-12-18T17:58:58;-1.80;99.90
5850;DHT22;2951;47.712;9.400;2022-12-18T18:01:25;-1.80;99.90
5850;DHT22;2951;47.712;9.400;2022-12-18T18:03:52;-1.80;99.90
5850;DHT22;2951;47.712;9.400;2022-12-18T18:06:21;-1.80;99.90
5850;DHT22;2951;47.712;9.400;2022-12-18T18:08:48;-1.80;99.90
5850;DHT22;2951;47.712;9.400;2022-12-18T18:11:16;-1.80;99.90
5850;DHT22;2951;47.712;9.400;2022-12-18T18:14:16;-1.90;99.90